Weather forecast for Shopky (Шопки Лагодів)

Ukraine, 275 m
N49.740, E24.519


Sounding

Red line — air temperature ˚C.
Blue line — thermal bubble temperature ˚C.
Green line — dew point temperature ˚C.
Wind speed is in meters per second.

Table forecast

GFS 0.25˚ model

temp. wind gust humid. clouds prec. press. hpbl
Sun21 00:00 -1 200.0 ssw 4 7 92 100 1.3 1010 254
03:00 -3 212.0 ssw 2 3 92 99 1.4 1010 54
06:00 -3 190.0 s 2 2 92 54 0.0 1010 21
09:00 -3 167.0 sse 2 2 92 44 0.0 1010 21
12:00 -1 152.0 sse 3 5 88 88 0.0 1010 251
15:00 0 116.0 ese 2 3 86 94 0.1 1010 278
18:00 -1 59.0 ene 4 6 91 100 0.2 1011 172
21:00 -1 69.0 ene 5 9 92 100 0.4 1012 325
 
Mon22 00:00 -2 62.0 ene 4 9 94 100 0.8 1014 375
03:00 -2 46.0 ne 5 9 95 100 1.4 1014 396
06:00 -3 41.0 ne 5 9 94 100 1.1 1015 442
09:00 -3 44.0 ne 5 8 95 100 2.2 1016 411
12:00 -3 51.0 ne 4 7 93 100 0.8 1017 402
15:00 -2 50.0 ne 4 6 91 98 1.1 1018 434
18:00 -3 53.0 ne 3 6 91 95 0.1 1019 315
21:00 -4 60.0 ene 3 5 95 87 0.1 1021 177
 
Tue23 00:00 -5 62.0 ene 2 4 95 79 0.0 1023 99
03:00 -6 78.0 ene 2 3 95 53 0.0 1024 60
06:00 -6 98.0 e 2 3 95 43 0.0 1025 83
09:00 -7 103.0 ese 2 3 95 53 0.0 1028 72
12:00 -5 117.0 ese 2 4 90 67 0.0 1030 318
15:00 -3 110.0 ese 2 3 86 44 0.0 1030 378
18:00 -6 112.0 ese 2 3 88 5 0.0 1032 24
21:00 -8 138.0 se 3 3 85 2 0.0 1034 47
 
Wed24 00:00 -9 150.0 sse 3 4 81 0 0.0 1035 86
03:00 -9 156.0 sse 3 6 81 0 0.0 1035 116
06:00 -9 159.0 sse 4 7 80 0 0.0 1035 137
09:00 -10 162.0 sse 4 9 79 0 0.0 1036 147
12:00 -6 167.0 sse 5 9 72 0 0.0 1036 232
15:00 -4 164.0 sse 4 7 73 0 0.0 1035 235
18:00 -6 163.0 sse 4 7 74 0 0.0 1035 95
21:00 -7 162.0 sse 4 7 72 0 0.0 1035 105
 
Thu25 00:00 -8 163.0 sse 4 7 78 0 0.0 1034 132
03:00 -8 164.0 sse 4 7 80 0 0.0 1033 128
06:00 -8 160.0 sse 4 7 77 0 0.0 1032 125
09:00 -8 158.0 sse 4 10 72 0 0.0 1031 161
12:00 -5 158.0 sse 6 10 64 0 0.0 1031 273
15:00 -3 151.0 sse 5 11 65 0 0.0 1029 290
18:00 -6 145.0 se 4 9 72 0 0.0 1028 203
21:00 -7 150.0 sse 6 13 71 0 0.0 1029 243
 

0.013 s